sensor_id;sensor_type;location;lat;lon;timestamp;P1;durP1;ratioP1;P2;durP2;ratioP2
70320;SDS011;61127;55.826;37.046;2024-02-28T00:01:37;9.32;;;3.30;;
70320;SDS011;61127;55.826;37.046;2024-02-28T00:04:03;10.80;;;3.40;;
70320;SDS011;61127;55.826;37.046;2024-02-28T00:06:30;8.02;;;2.67;;
70320;SDS011;61127;55.826;37.046;2024-02-28T00:08:56;15.60;;;3.15;;
70320;SDS011;61127;55.826;37.046;2024-02-28T00:11:22;10.17;;;3.20;;
70320;SDS011;61127;55.826;37.046;2024-02-28T00:13:47;13.05;;;3.63;;
70320;SDS011;61127;55.826;37.046;2024-02-28T00:16:31;9.85;;;3.35;;
70320;SDS011;61127;55.826;37.046;2024-02-28T00:18:57;10.70;;;3.10;;
70320;SDS011;61127;55.826;37.046;2024-02-28T00:21:23;12.40;;;3.67;;
70320;SDS011;61127;55.826;37.046;2024-02-28T00:23:48;11.87;;;3.60;;
70320;SDS011;61127;55.826;37.046;2024-02-28T00:26:14;9.05;;;3.10;;
70320;SDS011;61127;55.826;37.046;2024-02-28T00:28:40;10.93;;;3.60;;
70320;SDS011;61127;55.826;37.046;2024-02-28T00:31:07;12.50;;;3.50;;
70320;SDS011;61127;55.826;37.046;2024-02-28T00:33:33;8.95;;;2.85;;
70320;SDS011;61127;55.826;37.046;2024-02-28T00:35:58;9.05;;;3.30;;
70320;SDS011;61127;55.826;37.046;2024-02-28T00:38:24;10.70;;;3.57;;
70320;SDS011;61127;55.826;37.046;2024-02-28T00:40:50;9.00;;;3.45;;
70320;SDS011;61127;55.826;37.046;2024-02-28T00:43:34;11.60;;;3.40;;
70320;SDS011;61127;55.826;37.046;2024-02-28T00:46:00;10.93;;;3.30;;
70320;SDS011;61127;55.826;37.046;2024-02-28T00:48:44;12.60;;;3.08;;
70320;SDS011;61127;55.826;37.046;2024-02-28T00:51:10;10.45;;;3.20;;
70320;SDS011;61127;55.826;37.046;2024-02-28T00:53:36;12.82;;;3.72;;
70320;SDS011;61127;55.826;37.046;2024-02-28T00:56:02;9.98;;;3.63;;
70320;SDS011;61127;55.826;37.046;2024-02-28T00:58:28;9.20;;;3.47;;
70320;SDS011;61127;55.826;37.046;2024-02-28T01:00:55;11.38;;;3.13;;
70320;SDS011;61127;55.826;37.046;2024-02-28T01:03:22;9.88;;;3.30;;
70320;SDS011;61127;55.826;37.046;2024-02-28T01:05:49;9.32;;;3.38;;
70320;SDS011;61127;55.826;37.046;2024-02-28T01:08:15;11.90;;;3.72;;
70320;SDS011;61127;55.826;37.046;2024-02-28T01:10:42;9.30;;;3.17;;
70320;SDS011;61127;55.826;37.046;2024-02-28T01:13:08;9.23;;;3.13;;
70320;SDS011;61127;55.826;37.046;2024-02-28T01:15:34;10.90;;;3.38;;
70320;SDS011;61127;55.826;37.046;2024-02-28T01:18:00;9.30;;;3.50;;
70320;SDS011;61127;55.826;37.046;2024-02-28T01:20:26;9.88;;;3.58;;
70320;SDS011;61127;55.826;37.046;2024-02-28T01:22:52;10.80;;;3.33;;
70320;SDS011;61127;55.826;37.046;2024-02-28T01:25:17;9.43;;;3.60;;
70320;SDS011;61127;55.826;37.046;2024-02-28T01:27:44;11.73;;;4.07;;
70320;SDS011;61127;55.826;37.046;2024-02-28T01:30:10;7.83;;;3.57;;
70320;SDS011;61127;55.826;37.046;2024-02-28T01:32:35;9.77;;;3.53;;
70320;SDS011;61127;55.826;37.046;2024-02-28T01:35:04;8.80;;;3.35;;
70320;SDS011;61127;55.826;37.046;2024-02-28T01:37:31;13.57;;;3.42;;
70320;SDS011;61127;55.826;37.046;2024-02-28T01:39:57;11.13;;;3.50;;
70320;SDS011;61127;55.826;37.046;2024-02-28T01:42:22;10.10;;;3.50;;
70320;SDS011;61127;55.826;37.046;2024-02-28T01:44:48;9.63;;;4.00;;
70320;SDS011;61127;55.826;37.046;2024-02-28T01:47:14;10.25;;;3.80;;
70320;SDS011;61127;55.826;37.046;2024-02-28T01:49:40;11.45;;;3.67;;
70320;SDS011;61127;55.826;37.046;2024-02-28T01:52:07;10.30;;;3.53;;
70320;SDS011;61127;55.826;37.046;2024-02-28T01:54:33;13.60;;;3.38;;
70320;SDS011;61127;55.826;37.046;2024-02-28T01:57:00;11.32;;;3.60;;
70320;SDS011;61127;55.826;37.046;2024-02-28T01:59:26;12.30;;;3.85;;
70320;SDS011;61127;55.826;37.046;2024-02-28T02:01:54;10.13;;;3.55;;
70320;SDS011;61127;55.826;37.046;2024-02-28T02:04:19;9.07;;;3.73;;
70320;SDS011;61127;55.826;37.046;2024-02-28T02:07:04;11.73;;;3.97;;
70320;SDS011;61127;55.826;37.046;2024-02-28T02:09:29;13.07;;;3.60;;
70320;SDS011;61127;55.826;37.046;2024-02-28T02:11:55;9.95;;;3.78;;
70320;SDS011;61127;55.826;37.046;2024-02-28T02:14:21;11.35;;;3.65;;
70320;SDS011;61127;55.826;37.046;2024-02-28T02:16:48;12.80;;;3.70;;
70320;SDS011;61127;55.826;37.046;2024-02-28T02:19:13;11.85;;;3.60;;
70320;SDS011;61127;55.826;37.046;2024-02-28T02:21:41;12.15;;;3.50;;
70320;SDS011;61127;55.826;37.046;2024-02-28T02:24:06;11.00;;;3.67;;
70320;SDS011;61127;55.826;37.046;2024-02-28T02:26:32;9.18;;;3.53;;
70320;SDS011;61127;55.826;37.046;2024-02-28T02:28:58;14.30;;;4.22;;
70320;SDS011;61127;55.826;37.046;2024-02-28T02:31:25;14.33;;;3.77;;
70320;SDS011;61127;55.826;37.046;2024-02-28T02:33:51;12.85;;;3.40;;
70320;SDS011;61127;55.826;37.046;2024-02-28T02:36:17;16.37;;;4.13;;
70320;SDS011;61127;55.826;37.046;2024-02-28T02:38:43;10.85;;;3.17;;
70320;SDS011;61127;55.826;37.046;2024-02-28T02:41:08;12.68;;;3.88;;
70320;SDS011;61127;55.826;37.046;2024-02-28T02:43:34;8.33;;;3.37;;
70320;SDS011;61127;55.826;37.046;2024-02-28T02:46:00;9.25;;;3.38;;
70320;SDS011;61127;55.826;37.046;2024-02-28T02:48:26;10.87;;;3.90;;
70320;SDS011;61127;55.826;37.046;2024-02-28T02:51:10;14.90;;;3.75;;
70320;SDS011;61127;55.826;37.046;2024-02-28T02:53:36;14.48;;;4.15;;
70320;SDS011;61127;55.826;37.046;2024-02-28T02:56:04;11.53;;;3.47;;
70320;SDS011;61127;55.826;37.046;2024-02-28T02:58:30;12.80;;;3.85;;
70320;SDS011;61127;55.826;37.046;2024-02-28T03:00:56;12.00;;;4.10;;
70320;SDS011;61127;55.826;37.046;2024-02-28T03:03:22;11.77;;;4.18;;
70320;SDS011;61127;55.826;37.046;2024-02-28T03:05:48;10.90;;;4.00;;
70320;SDS011;61127;55.826;37.046;2024-02-28T03:08:14;11.90;;;3.63;;
70320;SDS011;61127;55.826;37.046;2024-02-28T03:10:40;14.43;;;4.80;;
70320;SDS011;61127;55.826;37.046;2024-02-28T03:13:06;11.63;;;3.67;;
70320;SDS011;61127;55.826;37.046;2024-02-28T03:15:33;11.98;;;3.95;;
70320;SDS011;61127;55.826;37.046;2024-02-28T03:17:58;11.88;;;4.07;;
70320;SDS011;61127;55.826;37.046;2024-02-28T03:20:24;11.23;;;3.67;;
70320;SDS011;61127;55.826;37.046;2024-02-28T03:22:51;10.18;;;3.70;;
70320;SDS011;61127;55.826;37.046;2024-02-28T03:25:17;11.00;;;3.92;;
70320;SDS011;61127;55.826;37.046;2024-02-28T03:28:01;14.40;;;4.00;;
70320;SDS011;61127;55.826;37.046;2024-02-28T03:30:27;11.77;;;3.90;;
70320;SDS011;61127;55.826;37.046;2024-02-28T03:32:53;12.82;;;4.40;;
70320;SDS011;61127;55.826;37.046;2024-02-28T03:35:19;10.00;;;3.70;;
70320;SDS011;61127;55.826;37.046;2024-02-28T03:37:45;13.20;;;4.32;;
70320;SDS011;61127;55.826;37.046;2024-02-28T03:40:11;12.27;;;4.17;;
70320;SDS011;61127;55.826;37.046;2024-02-28T03:42:37;14.85;;;4.72;;
70320;SDS011;61127;55.826;37.046;2024-02-28T03:45:03;13.23;;;4.03;;
70320;SDS011;61127;55.826;37.046;2024-02-28T03:47:30;15.50;;;4.82;;
70320;SDS011;61127;55.826;37.046;2024-02-28T03:49:56;11.13;;;4.40;;
70320;SDS011;61127;55.826;37.046;2024-02-28T03:52:23;13.20;;;4.07;;
70320;SDS011;61127;55.826;37.046;2024-02-28T03:54:49;15.10;;;4.18;;
70320;SDS011;61127;55.826;37.046;2024-02-28T03:57:15;18.65;;;4.55;;
70320;SDS011;61127;55.826;37.046;2024-02-28T03:59:41;15.37;;;4.40;;
70320;SDS011;61127;55.826;37.046;2024-02-28T04:02:06;12.57;;;4.10;;
70320;SDS011;61127;55.826;37.046;2024-02-28T04:04:32;11.40;;;4.00;;
70320;SDS011;61127;55.826;37.046;2024-02-28T04:06:58;13.82;;;4.30;;
70320;SDS011;61127;55.826;37.046;2024-02-28T04:09:24;15.95;;;3.85;;
70320;SDS011;61127;55.826;37.046;2024-02-28T04:11:50;15.27;;;4.50;;
70320;SDS011;61127;55.826;37.046;2024-02-28T04:14:17;14.07;;;3.95;;
70320;SDS011;61127;55.826;37.046;2024-02-28T04:16:43;13.20;;;4.25;;
70320;SDS011;61127;55.826;37.046;2024-02-28T04:19:13;12.85;;;4.05;;
70320;SDS011;61127;55.826;37.046;2024-02-28T04:21:38;13.75;;;4.22;;
70320;SDS011;61127;55.826;37.046;2024-02-28T04:24:06;11.45;;;3.50;;
70320;SDS011;61127;55.826;37.046;2024-02-28T04:26:31;10.30;;;4.03;;
70320;SDS011;61127;55.826;37.046;2024-02-28T04:28:57;21.00;;;4.67;;
70320;SDS011;61127;55.826;37.046;2024-02-28T04:31:23;12.93;;;4.15;;
70320;SDS011;61127;55.826;37.046;2024-02-28T04:33:48;15.50;;;4.20;;
70320;SDS011;61127;55.826;37.046;2024-02-28T04:36:33;11.75;;;3.67;;
70320;SDS011;61127;55.826;37.046;2024-02-28T04:38:58;12.05;;;3.65;;
70320;SDS011;61127;55.826;37.046;2024-02-28T04:41:27;15.13;;;4.57;;
70320;SDS011;61127;55.826;37.046;2024-02-28T04:43:53;13.45;;;4.07;;
70320;SDS011;61127;55.826;37.046;2024-02-28T04:46:19;15.63;;;4.80;;
70320;SDS011;61127;55.826;37.046;2024-02-28T04:48:45;15.13;;;4.97;;
70320;SDS011;61127;55.826;37.046;2024-02-28T04:51:10;15.90;;;4.70;;
70320;SDS011;61127;55.826;37.046;2024-02-28T04:53:36;14.33;;;4.23;;
70320;SDS011;61127;55.826;37.046;2024-02-28T04:56:04;13.60;;;4.63;;
70320;SDS011;61127;55.826;37.046;2024-02-28T04:58:30;13.35;;;4.18;;
70320;SDS011;61127;55.826;37.046;2024-02-28T05:00:56;12.10;;;3.80;;
70320;SDS011;61127;55.826;37.046;2024-02-28T05:03:21;15.52;;;4.32;;
70320;SDS011;61127;55.826;37.046;2024-02-28T05:05:47;13.13;;;4.47;;
70320;SDS011;61127;55.826;37.046;2024-02-28T05:08:13;18.77;;;4.73;;
70320;SDS011;61127;55.826;37.046;2024-02-28T05:10:39;15.18;;;4.38;;
70320;SDS011;61127;55.826;37.046;2024-02-28T05:13:05;14.02;;;5.38;;
70320;SDS011;61127;55.826;37.046;2024-02-28T05:15:31;18.00;;;5.53;;
70320;SDS011;61127;55.826;37.046;2024-02-28T05:17:57;15.45;;;5.35;;
70320;SDS011;61127;55.826;37.046;2024-02-28T05:20:23;19.48;;;6.22;;
70320;SDS011;61127;55.826;37.046;2024-02-28T05:22:48;18.50;;;5.63;;
70320;SDS011;61127;55.826;37.046;2024-02-28T05:25:14;16.23;;;6.43;;
70320;SDS011;61127;55.826;37.046;2024-02-28T05:27:40;15.03;;;4.87;;
70320;SDS011;61127;55.826;37.046;2024-02-28T05:30:06;14.45;;;5.63;;
70320;SDS011;61127;55.826;37.046;2024-02-28T05:32:32;16.00;;;5.20;;
70320;SDS011;61127;55.826;37.046;2024-02-28T05:34:58;15.88;;;5.20;;
70320;SDS011;61127;55.826;37.046;2024-02-28T05:37:25;15.98;;;5.10;;
70320;SDS011;61127;55.826;37.046;2024-02-28T05:39:50;16.92;;;4.97;;
70320;SDS011;61127;55.826;37.046;2024-02-28T05:42:16;15.07;;;5.40;;
70320;SDS011;61127;55.826;37.046;2024-02-28T05:44:47;19.50;;;4.93;;
70320;SDS011;61127;55.826;37.046;2024-02-28T05:47:14;17.58;;;5.18;;
70320;SDS011;61127;55.826;37.046;2024-02-28T05:49:40;15.20;;;5.00;;
70320;SDS011;61127;55.826;37.046;2024-02-28T05:52:05;15.65;;;5.47;;
70320;SDS011;61127;55.826;37.046;2024-02-28T05:54:31;14.38;;;5.60;;
70320;SDS011;61127;55.826;37.046;2024-02-28T05:56:59;13.93;;;5.32;;
70320;SDS011;61127;55.826;37.046;2024-02-28T05:59:25;13.27;;;4.95;;
70320;SDS011;61127;55.826;37.046;2024-02-28T06:01:52;16.00;;;4.97;;
70320;SDS011;61127;55.826;37.046;2024-02-28T06:04:17;14.18;;;5.00;;
70320;SDS011;61127;55.826;37.046;2024-02-28T06:06:43;14.50;;;5.10;;
70320;SDS011;61127;55.826;37.046;2024-02-28T06:09:09;18.73;;;5.30;;
70320;SDS011;61127;55.826;37.046;2024-02-28T06:11:34;15.87;;;5.30;;
70320;SDS011;61127;55.826;37.046;2024-02-28T06:14:01;14.73;;;5.43;;
70320;SDS011;61127;55.826;37.046;2024-02-28T06:16:28;14.77;;;5.32;;
70320;SDS011;61127;55.826;37.046;2024-02-28T06:18:53;12.70;;;4.87;;
70320;SDS011;61127;55.826;37.046;2024-02-28T06:21:21;14.32;;;5.38;;
70320;SDS011;61127;55.826;37.046;2024-02-28T06:23:48;14.57;;;4.60;;
70320;SDS011;61127;55.826;37.046;2024-02-28T06:26:14;14.35;;;4.80;;
70320;SDS011;61127;55.826;37.046;2024-02-28T06:28:45;16.63;;;5.93;;
70320;SDS011;61127;55.826;37.046;2024-02-28T06:31:13;22.40;;;7.85;;
70320;SDS011;61127;55.826;37.046;2024-02-28T06:33:39;23.03;;;8.37;;
70320;SDS011;61127;55.826;37.046;2024-02-28T06:36:06;29.85;;;10.00;;
70320;SDS011;61127;55.826;37.046;2024-02-28T06:38:32;23.45;;;7.90;;
70320;SDS011;61127;55.826;37.046;2024-02-28T06:41:06;41.20;;;15.07;;
70320;SDS011;61127;55.826;37.046;2024-02-28T06:43:35;18.00;;;7.10;;
70320;SDS011;61127;55.826;37.046;2024-02-28T06:46:19;26.58;;;8.05;;
70320;SDS011;61127;55.826;37.046;2024-02-28T06:48:45;17.38;;;6.45;;
70320;SDS011;61127;55.826;37.046;2024-02-28T06:51:10;17.03;;;5.83;;
70320;SDS011;61127;55.826;37.046;2024-02-28T06:53:37;14.52;;;5.35;;
70320;SDS011;61127;55.826;37.046;2024-02-28T06:56:03;14.05;;;5.32;;
70320;SDS011;61127;55.826;37.046;2024-02-28T06:58:29;14.67;;;6.00;;
70320;SDS011;61127;55.826;37.046;2024-02-28T07:00:54;14.50;;;5.80;;
70320;SDS011;61127;55.826;37.046;2024-02-28T07:03:20;15.53;;;5.90;;
70320;SDS011;61127;55.826;37.046;2024-02-28T07:05:46;13.85;;;5.53;;
70320;SDS011;61127;55.826;37.046;2024-02-28T07:08:12;13.45;;;5.50;;
70320;SDS011;61127;55.826;37.046;2024-02-28T07:10:38;14.67;;;6.07;;
70320;SDS011;61127;55.826;37.046;2024-02-28T07:13:09;15.57;;;5.72;;
70320;SDS011;61127;55.826;37.046;2024-02-28T07:15:35;16.08;;;5.53;;
70320;SDS011;61127;55.826;37.046;2024-02-28T07:18:00;17.90;;;6.07;;
70320;SDS011;61127;55.826;37.046;2024-02-28T07:20:26;16.60;;;6.18;;
70320;SDS011;61127;55.826;37.046;2024-02-28T07:22:52;16.17;;;5.27;;
70320;SDS011;61127;55.826;37.046;2024-02-28T07:25:18;14.93;;;5.50;;
70320;SDS011;61127;55.826;37.046;2024-02-28T07:27:43;16.30;;;5.30;;
70320;SDS011;61127;55.826;37.046;2024-02-28T07:30:09;14.33;;;5.40;;
70320;SDS011;61127;55.826;37.046;2024-02-28T07:32:35;16.00;;;5.47;;
70320;SDS011;61127;55.826;37.046;2024-02-28T07:35:02;17.40;;;6.07;;
70320;SDS011;61127;55.826;37.046;2024-02-28T07:37:30;17.17;;;6.27;;
70320;SDS011;61127;55.826;37.046;2024-02-28T07:39:56;15.02;;;5.75;;
70320;SDS011;61127;55.826;37.046;2024-02-28T07:42:22;16.58;;;6.30;;
70320;SDS011;61127;55.826;37.046;2024-02-28T07:44:48;16.75;;;5.82;;
70320;SDS011;61127;55.826;37.046;2024-02-28T07:47:19;15.47;;;5.27;;
70320;SDS011;61127;55.826;37.046;2024-02-28T07:49:45;16.95;;;5.70;;
70320;SDS011;61127;55.826;37.046;2024-02-28T07:52:10;14.25;;;5.88;;
70320;SDS011;61127;55.826;37.046;2024-02-28T07:54:36;14.98;;;5.28;;
70320;SDS011;61127;55.826;37.046;2024-02-28T07:57:03;17.20;;;6.07;;
70320;SDS011;61127;55.826;37.046;2024-02-28T07:59:28;15.10;;;5.40;;
70320;SDS011;61127;55.826;37.046;2024-02-28T08:01:54;10.80;;;5.20;;
70320;SDS011;61127;55.826;37.046;2024-02-28T08:04:20;14.63;;;6.57;;
70320;SDS011;61127;55.826;37.046;2024-02-28T08:06:47;13.52;;;5.68;;
70320;SDS011;61127;55.826;37.046;2024-02-28T08:09:12;16.60;;;5.78;;
70320;SDS011;61127;55.826;37.046;2024-02-28T08:11:40;11.73;;;5.63;;
70320;SDS011;61127;55.826;37.046;2024-02-28T08:14:06;15.27;;;5.63;;
70320;SDS011;61127;55.826;37.046;2024-02-28T08:16:32;13.05;;;5.43;;
70320;SDS011;61127;55.826;37.046;2024-02-28T08:18:58;16.33;;;5.87;;
70320;SDS011;61127;55.826;37.046;2024-02-28T08:21:24;14.60;;;5.15;;
70320;SDS011;61127;55.826;37.046;2024-02-28T08:23:50;16.23;;;5.43;;
70320;SDS011;61127;55.826;37.046;2024-02-28T08:26:16;14.40;;;5.30;;
70320;SDS011;61127;55.826;37.046;2024-02-28T08:28:41;16.02;;;5.32;;
70320;SDS011;61127;55.826;37.046;2024-02-28T08:31:07;19.10;;;5.57;;
70320;SDS011;61127;55.826;37.046;2024-02-28T08:33:33;15.18;;;5.68;;
70320;SDS011;61127;55.826;37.046;2024-02-28T08:35:58;14.43;;;5.10;;
70320;SDS011;61127;55.826;37.046;2024-02-28T08:38:24;21.25;;;5.97;;
70320;SDS011;61127;55.826;37.046;2024-02-28T08:40:50;13.60;;;5.60;;
70320;SDS011;61127;55.826;37.046;2024-02-28T08:43:16;14.88;;;5.25;;
70320;SDS011;61127;55.826;37.046;2024-02-28T08:45:41;12.40;;;5.60;;
70320;SDS011;61127;55.826;37.046;2024-02-28T08:48:07;13.15;;;5.97;;
70320;SDS011;61127;55.826;37.046;2024-02-28T08:50:33;12.50;;;5.67;;
70320;SDS011;61127;55.826;37.046;2024-02-28T08:52:58;11.88;;;5.60;;
70320;SDS011;61127;55.826;37.046;2024-02-28T08:55:24;16.53;;;5.53;;
70320;SDS011;61127;55.826;37.046;2024-02-28T08:57:50;15.60;;;6.30;;
70320;SDS011;61127;55.826;37.046;2024-02-28T09:00:16;16.93;;;6.33;;
70320;SDS011;61127;55.826;37.046;2024-02-28T09:02:43;15.07;;;5.63;;
70320;SDS011;61127;55.826;37.046;2024-02-28T09:05:08;13.43;;;5.28;;
70320;SDS011;61127;55.826;37.046;2024-02-28T09:07:34;15.70;;;5.78;;
70320;SDS011;61127;55.826;37.046;2024-02-28T09:10:03;16.40;;;6.25;;
70320;SDS011;61127;55.826;37.046;2024-02-28T09:12:29;14.73;;;6.15;;
70320;SDS011;61127;55.826;37.046;2024-02-28T09:14:55;14.40;;;5.60;;
70320;SDS011;61127;55.826;37.046;2024-02-28T09:17:23;14.10;;;5.32;;
70320;SDS011;61127;55.826;37.046;2024-02-28T09:19:49;15.40;;;6.10;;
70320;SDS011;61127;55.826;37.046;2024-02-28T09:22:15;16.27;;;6.20;;
70320;SDS011;61127;55.826;37.046;2024-02-28T09:24:42;15.27;;;5.93;;
70320;SDS011;61127;55.826;37.046;2024-02-28T09:27:08;13.70;;;5.93;;
70320;SDS011;61127;55.826;37.046;2024-02-28T09:29:34;10.23;;;5.40;;
70320;SDS011;61127;55.826;37.046;2024-02-28T09:32:00;13.80;;;5.75;;
70320;SDS011;61127;55.826;37.046;2024-02-28T09:34:25;17.30;;;5.87;;
70320;SDS011;61127;55.826;37.046;2024-02-28T09:36:51;15.48;;;5.70;;
70320;SDS011;61127;55.826;37.046;2024-02-28T09:39:17;14.65;;;5.93;;
70320;SDS011;61127;55.826;37.046;2024-02-28T09:41:43;13.97;;;5.93;;
70320;SDS011;61127;55.826;37.046;2024-02-28T09:44:09;14.15;;;6.20;;
70320;SDS011;61127;55.826;37.046;2024-02-28T09:46:35;15.20;;;6.20;;
70320;SDS011;61127;55.826;37.046;2024-02-28T09:49:04;11.23;;;5.60;;
70320;SDS011;61127;55.826;37.046;2024-02-28T09:51:34;13.45;;;5.97;;
70320;SDS011;61127;55.826;37.046;2024-02-28T09:54:03;14.07;;;6.20;;
70320;SDS011;61127;55.826;37.046;2024-02-28T09:56:31;13.32;;;6.18;;
70320;SDS011;61127;55.826;37.046;2024-02-28T09:58:57;13.13;;;5.93;;
70320;SDS011;61127;55.826;37.046;2024-02-28T10:01:23;15.00;;;6.05;;
70320;SDS011;61127;55.826;37.046;2024-02-28T10:03:51;14.68;;;6.05;;
70320;SDS011;61127;55.826;37.046;2024-02-28T10:06:18;11.73;;;5.50;;
70320;SDS011;61127;55.826;37.046;2024-02-28T10:08:44;14.52;;;6.53;;
70320;SDS011;61127;55.826;37.046;2024-02-28T10:11:22;13.87;;;6.03;;
70320;SDS011;61127;55.826;37.046;2024-02-28T10:13:48;12.90;;;5.45;;
70320;SDS011;61127;55.826;37.046;2024-02-28T10:16:14;11.75;;;6.22;;
70320;SDS011;61127;55.826;37.046;2024-02-28T10:18:44;13.43;;;6.60;;
70320;SDS011;61127;55.826;37.046;2024-02-28T10:21:10;13.18;;;6.10;;
70320;SDS011;61127;55.826;37.046;2024-02-28T10:23:40;18.77;;;6.97;;
70320;SDS011;61127;55.826;37.046;2024-02-28T10:26:10;19.10;;;6.43;;
70320;SDS011;61127;55.826;37.046;2024-02-28T10:28:37;16.05;;;5.93;;
70320;SDS011;61127;55.826;37.046;2024-02-28T10:31:04;11.38;;;6.15;;
70320;SDS011;61127;55.826;37.046;2024-02-28T10:33:29;16.20;;;6.13;;
70320;SDS011;61127;55.826;37.046;2024-02-28T10:35:56;13.07;;;6.00;;
70320;SDS011;61127;55.826;37.046;2024-02-28T10:38:22;14.68;;;5.88;;
70320;SDS011;61127;55.826;37.046;2024-02-28T10:41:07;13.18;;;5.82;;
70320;SDS011;61127;55.826;37.046;2024-02-28T10:43:33;12.18;;;6.05;;
70320;SDS011;61127;55.826;37.046;2024-02-28T10:46:00;14.55;;;5.78;;
70320;SDS011;61127;55.826;37.046;2024-02-28T10:48:26;11.45;;;5.88;;
70320;SDS011;61127;55.826;37.046;2024-02-28T10:50:52;16.35;;;6.03;;
70320;SDS011;61127;55.826;37.046;2024-02-28T10:53:22;13.27;;;6.07;;
70320;SDS011;61127;55.826;37.046;2024-02-28T10:55:53;13.52;;;6.03;;
70320;SDS011;61127;55.826;37.046;2024-02-28T10:58:19;10.80;;;6.00;;
70320;SDS011;61127;55.826;37.046;2024-02-28T11:00:47;12.30;;;5.75;;
70320;SDS011;61127;55.826;37.046;2024-02-28T11:03:15;13.05;;;5.57;;
70320;SDS011;61127;55.826;37.046;2024-02-28T11:05:42;13.30;;;5.95;;
70320;SDS011;61127;55.826;37.046;2024-02-28T11:08:09;13.40;;;5.65;;
70320;SDS011;61127;55.826;37.046;2024-02-28T11:10:35;15.68;;;6.15;;
70320;SDS011;61127;55.826;37.046;2024-02-28T11:13:01;11.95;;;5.47;;
70320;SDS011;61127;55.826;37.046;2024-02-28T11:15:26;10.80;;;5.70;;
70320;SDS011;61127;55.826;37.046;2024-02-28T11:17:55;13.25;;;6.10;;
70320;SDS011;61127;55.826;37.046;2024-02-28T11:20:32;13.60;;;5.53;;
70320;SDS011;61127;55.826;37.046;2024-02-28T11:22:59;12.48;;;5.88;;
70320;SDS011;61127;55.826;37.046;2024-02-28T11:25:44;12.37;;;6.03;;
70320;SDS011;61127;55.826;37.046;2024-02-28T11:28:09;11.02;;;5.32;;
70320;SDS011;61127;55.826;37.046;2024-02-28T11:30:35;13.48;;;5.95;;
70320;SDS011;61127;55.826;37.046;2024-02-28T11:33:02;12.98;;;5.63;;
70320;SDS011;61127;55.826;37.046;2024-02-28T11:35:28;11.07;;;5.40;;
70320;SDS011;61127;55.826;37.046;2024-02-28T11:37:54;11.60;;;6.00;;
70320;SDS011;61127;55.826;37.046;2024-02-28T11:40:23;15.40;;;6.45;;
70320;SDS011;61127;55.826;37.046;2024-02-28T11:43:10;10.10;;;5.80;;
70320;SDS011;61127;55.826;37.046;2024-02-28T11:45:39;11.05;;;5.90;;
70320;SDS011;61127;55.826;37.046;2024-02-28T11:48:06;17.05;;;6.32;;
70320;SDS011;61127;55.826;37.046;2024-02-28T11:50:31;12.68;;;6.00;;
70320;SDS011;61127;55.826;37.046;2024-02-28T11:52:57;13.40;;;6.20;;
70320;SDS011;61127;55.826;37.046;2024-02-28T11:55:24;14.88;;;5.93;;
70320;SDS011;61127;55.826;37.046;2024-02-28T11:57:50;13.90;;;6.07;;
70320;SDS011;61127;55.826;37.046;2024-02-28T12:00:16;14.10;;;6.10;;
70320;SDS011;61127;55.826;37.046;2024-02-28T12:02:42;16.00;;;6.55;;
70320;SDS011;61127;55.826;37.046;2024-02-28T12:05:08;12.23;;;6.07;;
70320;SDS011;61127;55.826;37.046;2024-02-28T12:07:34;14.80;;;6.40;;
70320;SDS011;61127;55.826;37.046;2024-02-28T12:10:00;15.33;;;6.03;;
70320;SDS011;61127;55.826;37.046;2024-02-28T12:12:29;13.25;;;6.70;;
70320;SDS011;61127;55.826;37.046;2024-02-28T12:14:58;12.43;;;6.53;;
70320;SDS011;61127;55.826;37.046;2024-02-28T12:17:26;16.33;;;7.03;;
70320;SDS011;61127;55.826;37.046;2024-02-28T12:19:52;14.10;;;6.90;;
70320;SDS011;61127;55.826;37.046;2024-02-28T12:22:18;16.10;;;7.10;;
70320;SDS011;61127;55.826;37.046;2024-02-28T12:24:43;11.80;;;6.80;;
70320;SDS011;61127;55.826;37.046;2024-02-28T12:27:10;14.67;;;6.87;;
70320;SDS011;61127;55.826;37.046;2024-02-28T12:29:54;15.00;;;7.10;;
70320;SDS011;61127;55.826;37.046;2024-02-28T12:32:20;14.90;;;7.10;;
70320;SDS011;61127;55.826;37.046;2024-02-28T12:34:46;15.33;;;6.67;;
70320;SDS011;61127;55.826;37.046;2024-02-28T12:37:12;14.82;;;7.07;;
70320;SDS011;61127;55.826;37.046;2024-02-28T12:39:37;12.67;;;6.43;;
70320;SDS011;61127;55.826;37.046;2024-02-28T12:42:03;13.90;;;6.38;;
70320;SDS011;61127;55.826;37.046;2024-02-28T12:44:29;15.18;;;6.70;;
70320;SDS011;61127;55.826;37.046;2024-02-28T12:46:55;13.87;;;6.53;;
70320;SDS011;61127;55.826;37.046;2024-02-28T12:49:21;14.10;;;5.90;;
70320;SDS011;61127;55.826;37.046;2024-02-28T12:51:47;12.93;;;6.38;;
70320;SDS011;61127;55.826;37.046;2024-02-28T12:54:14;15.90;;;5.63;;
70320;SDS011;61127;55.826;37.046;2024-02-28T12:56:40;17.00;;;5.97;;
70320;SDS011;61127;55.826;37.046;2024-02-28T12:59:09;12.43;;;5.47;;
70320;SDS011;61127;55.826;37.046;2024-02-28T13:01:35;11.38;;;5.40;;
70320;SDS011;61127;55.826;37.046;2024-02-28T13:04:01;14.10;;;5.50;;
70320;SDS011;61127;55.826;37.046;2024-02-28T13:06:27;14.90;;;6.00;;
70320;SDS011;61127;55.826;37.046;2024-02-28T13:08:53;24.35;;;6.20;;
70320;SDS011;61127;55.826;37.046;2024-02-28T13:11:20;10.80;;;5.25;;
70320;SDS011;61127;55.826;37.046;2024-02-28T13:13:46;16.90;;;5.80;;
70320;SDS011;61127;55.826;37.046;2024-02-28T13:16:31;16.60;;;5.72;;
70320;SDS011;61127;55.826;37.046;2024-02-28T13:18:56;14.57;;;6.00;;
70320;SDS011;61127;55.826;37.046;2024-02-28T13:21:22;14.63;;;5.90;;
70320;SDS011;61127;55.826;37.046;2024-02-28T13:23:49;11.32;;;5.53;;
70320;SDS011;61127;55.826;37.046;2024-02-28T13:26:14;15.43;;;5.90;;
70320;SDS011;61127;55.826;37.046;2024-02-28T13:28:44;15.35;;;5.93;;
70320;SDS011;61127;55.826;37.046;2024-02-28T13:31:10;19.63;;;6.50;;
70320;SDS011;61127;55.826;37.046;2024-02-28T13:33:36;15.23;;;6.28;;
70320;SDS011;61127;55.826;37.046;2024-02-28T13:36:04;18.58;;;6.15;;
70320;SDS011;61127;55.826;37.046;2024-02-28T13:38:30;14.57;;;5.47;;
70320;SDS011;61127;55.826;37.046;2024-02-28T13:40:55;16.60;;;5.70;;
70320;SDS011;61127;55.826;37.046;2024-02-28T13:43:21;14.68;;;5.78;;
70320;SDS011;61127;55.826;37.046;2024-02-28T13:45:50;13.87;;;5.50;;
70320;SDS011;61127;55.826;37.046;2024-02-28T13:48:26;16.02;;;4.97;;
70320;SDS011;61127;55.826;37.046;2024-02-28T13:50:54;12.63;;;5.30;;
70320;SDS011;61127;55.826;37.046;2024-02-28T13:53:20;15.80;;;5.85;;
70320;SDS011;61127;55.826;37.046;2024-02-28T13:55:46;16.03;;;5.30;;
70320;SDS011;61127;55.826;37.046;2024-02-28T13:58:12;13.35;;;4.78;;
70320;SDS011;61127;55.826;37.046;2024-02-28T14:00:57;13.88;;;4.80;;
70320;SDS011;61127;55.826;37.046;2024-02-28T14:03:22;12.47;;;4.33;;
70320;SDS011;61127;55.826;37.046;2024-02-28T14:05:51;13.50;;;4.93;;
70320;SDS011;61127;55.826;37.046;2024-02-28T14:08:17;14.77;;;5.20;;
70320;SDS011;61127;55.826;37.046;2024-02-28T14:10:43;14.73;;;5.20;;
70320;SDS011;61127;55.826;37.046;2024-02-28T14:13:28;11.17;;;5.03;;
70320;SDS011;61127;55.826;37.046;2024-02-28T14:15:53;14.80;;;4.85;;
70320;SDS011;61127;55.826;37.046;2024-02-28T14:18:19;14.77;;;4.90;;
70320;SDS011;61127;55.826;37.046;2024-02-28T14:20:45;14.57;;;4.57;;
70320;SDS011;61127;55.826;37.046;2024-02-28T14:23:11;13.48;;;4.82;;